Cedar Lake, Texas
Current Conditions -  °F | °C
As of 2:53 AM on Monday 24 Nov 2014 (Local Time) from KLBX Reporting Station
Clear Clear  
Wind Chill: 58°   Ceiling: Unl
Heat Index: 58°   Visibility: 10mi
Dew Point: 45°   Wind: 14mph
Humidity: 62%   Direction: 340°NNW
Pressure: 29.82"   Gusts: 22mph
Location:  28.8997°N, 95.7887°W
Report Text: KLBX 240853Z AUTO 34012G19KT 10SM CLR 14/07 A2982 RMK AO2 SLP099 T01440072 51036
Loading
Personal Weather Stations






























Interactive Weather Map New forecast layout! Learn more

10-Day Weather Forecast

Advertisements
Track Severe Weather on mobile